Time;durP1;ratioP1;P1;durP2;ratioP2;P2;SDS_P1;SDS_P2;PMS_P1;PMS_P2;Temp;Humidity;BMP_temperature;BMP_pressure;BME280_temperature;BME280_humidity;BME280_pressure;Samples;Min_cycle;Max_cycle;Signal;HPM_P1;HPM_P2
2023/08/20 04:01:25;;;;;;;;;;;16.00;99.90;;;;;;5532808;23;20013;-77
2023/08/20 04:03:51;;;;;;;;;;;16.00;99.90;;;;;;4993169;28;19953;-77
2023/08/20 04:06:16;;;;;;;;;;;15.90;99.90;;;;;;4992967;28;20393;-78
2023/08/20 04:08:42;;;;;;;;;;;15.90;99.90;;;;;;4992780;28;20390;-77
2023/08/20 04:11:08;;;;;;;;;;;15.90;99.90;;;;;;4986188;28;19929;-77
2023/08/20 04:13:33;;;;;;;;;;;15.90;99.90;;;;;;4973427;28;19923;-79
2023/08/20 04:15:59;;;;;;;;;;;15.80;99.90;;;;;;4957351;28;19975;-79
2023/08/20 04:18:24;;;;;;;;;;;15.80;99.90;;;;;;4973370;28;20009;-79
2023/08/20 04:20:53;;;;;;;;;;;15.80;99.90;;;;;;4973475;28;20282;-78
2023/08/20 04:23:19;;;;;;;;;;;15.80;99.90;;;;;;4958154;28;20041;-78
2023/08/20 04:25:45;;;;;;;;;;;15.70;99.90;;;;;;4977879;28;20009;-77
2023/08/20 04:28:11;;;;;;;;;;;15.70;99.90;;;;;;4960251;28;19926;-77
2023/08/20 04:30:37;;;;;;;;;;;15.70;99.90;;;;;;4978169;28;19922;-78
2023/08/20 04:33:03;;;;;;;;;;;15.60;99.90;;;;;;4977999;28;20363;-79
2023/08/20 04:35:28;;;;;;;;;;;15.60;99.90;;;;;;4976958;28;19931;-79
2023/08/20 04:37:54;;;;;;;;;;;15.50;99.90;;;;;;4976685;28;19928;-77
2023/08/20 04:40:19;;;;;;;;;;;15.50;99.90;;;;;;4976358;28;19922;-78
2023/08/20 04:42:45;;;;;;;;;;;15.50;99.90;;;;;;4976470;28;19930;-78
2023/08/20 04:45:10;;;;;;;;;;;15.50;99.90;;;;;;4976318;28;19937;-77
2023/08/20 04:47:36;;;;;;;;;;;15.50;99.90;;;;;;4960093;28;19933;-78
2023/08/20 04:50:02;;;;;;;;;;;15.50;99.90;;;;;;4976101;28;19926;-79
2023/08/20 04:52:28;;;;;;;;;;;15.50;99.90;;;;;;4976205;28;19976;-79
2023/08/20 04:54:53;;;;;;;;;;;15.50;99.90;;;;;;4976482;28;20322;-79
2023/08/20 04:57:19;;;;;;;;;;;15.50;99.90;;;;;;4976494;28;20367;-79
2023/08/20 04:59:45;;;;;;;;;;;15.50;99.90;;;;;;4976465;28;20319;-79
2023/08/20 05:02:11;;;;;;;;;;;15.50;99.90;;;;;;4976224;28;19922;-79
2023/08/20 05:04:36;;;;;;;;;;;15.50;99.90;;;;;;4976015;28;19928;-79
2023/08/20 05:07:03;;;;;;;;;;;15.50;99.90;;;;;;4976014;28;19926;-79
2023/08/20 05:09:28;;;;;;;;;;;15.50;99.90;;;;;;4975887;28;19965;-78
2023/08/20 05:11:54;;;;;;;;;;;15.60;99.90;;;;;;4977234;28;19976;-78
2023/08/20 05:14:20;;;;;;;;;;;15.60;99.90;;;;;;4975964;28;19922;-78
2023/08/20 05:16:45;;;;;;;;;;;15.50;99.90;;;;;;4975858;28;19929;-78
2023/08/20 05:19:11;;;;;;;;;;;15.50;99.90;;;;;;4975992;28;19922;-78
2023/08/20 05:21:36;;;;;;;;;;;15.50;99.90;;;;;;4976293;28;20017;-78
2023/08/20 05:24:02;;;;;;;;;;;15.50;99.90;;;;;;4976821;28;19929;-78
2023/08/20 05:26:27;;;;;;;;;;;15.50;99.90;;;;;;4975460;28;19933;-77
2023/08/20 05:28:53;;;;;;;;;;;15.50;99.90;;;;;;4977050;28;20008;-78
2023/08/20 05:31:18;;;;;;;;;;;15.60;99.90;;;;;;4975723;28;20370;-78
2023/08/20 05:33:44;;;;;;;;;;;15.60;99.90;;;;;;4975336;28;20395;-78
2023/08/20 05:36:09;;;;;;;;;;;15.50;99.90;;;;;;4974866;28;19922;-78
2023/08/20 05:38:35;;;;;;;;;;;15.50;99.90;;;;;;4975179;28;19980;-78
2023/08/20 05:41:00;;;;;;;;;;;15.50;99.90;;;;;;4975211;28;19922;-78
2023/08/20 05:43:26;;;;;;;;;;;15.60;99.90;;;;;;4975444;28;20294;-78
2023/08/20 05:45:51;;;;;;;;;;;15.60;99.90;;;;;;4975735;28;20390;-79
2023/08/20 05:48:17;;;;;;;;;;;15.60;99.90;;;;;;4975220;28;20013;-78
2023/08/20 05:50:42;;;;;;;;;;;15.70;99.90;;;;;;4975038;28;19922;-78
2023/08/20 05:53:08;;;;;;;;;;;15.70;99.90;;;;;;4975065;28;19965;-78
2023/08/20 05:55:34;;;;;;;;;;;15.70;99.90;;;;;;4975426;28;19923;-78
2023/08/20 05:57:59;;;;;;;;;;;15.70;99.90;;;;;;4976301;28;20398;-79
2023/08/20 06:00:25;;;;;;;;;;;15.80;99.90;;;;;;4974785;28;19940;-79
2023/08/20 06:02:52;;;;;;;;;;;15.80;99.90;;;;;;4976056;28;20414;-79
2023/08/20 06:05:18;;;;;;;;;;;15.90;99.90;;;;;;4975198;28;19922;-79
2023/08/20 06:07:43;;;;;;;;;;;16.00;99.90;;;;;;4976646;28;19930;-79
2023/08/20 06:10:09;;;;;;;;;;;16.10;99.90;;;;;;4976056;28;19972;-78
2023/08/20 06:12:34;;;;;;;;;;;16.20;99.90;;;;;;4974823;28;19937;-78
2023/08/20 06:15:00;;;;;;;;;;;16.30;99.90;;;;;;4976390;28;19969;-80
2023/08/20 06:17:25;;;;;;;;;;;16.40;99.90;;;;;;4974622;28;19922;-77
2023/08/20 06:19:51;;;;;;;;;;;16.50;99.90;;;;;;4974825;28;19922;-79
2023/08/20 06:22:16;;;;;;;;;;;16.60;99.90;;;;;;4974504;28;19931;-79
2023/08/20 06:24:42;;;;;;;;;;;16.70;99.90;;;;;;4974800;28;19922;-79
2023/08/20 06:27:07;;;;;;;;;;;16.80;99.90;;;;;;4974522;28;19926;-80
2023/08/20 06:29:33;;;;;;;;;;;16.90;99.90;;;;;;4975039;28;20013;-80
2023/08/20 06:31:58;;;;;;;;;;;17.00;99.90;;;;;;4975156;28;20028;-81
2023/08/20 06:34:24;;;;;;;;;;;17.10;99.90;;;;;;4976465;28;19926;-79
2023/08/20 06:36:50;;;;;;;;;;;17.10;99.90;;;;;;4976673;28;19926;-79
2023/08/20 06:39:15;;;;;;;;;;;17.30;99.90;;;;;;4974996;28;19922;-79
2023/08/20 06:41:41;;;;;;;;;;;17.30;99.90;;;;;;4975528;28;19929;-80
2023/08/20 06:44:06;;;;;;;;;;;17.50;99.90;;;;;;4975263;28;19922;-80
2023/08/20 06:46:32;;;;;;;;;;;17.50;99.90;;;;;;4973997;28;19977;-81
2023/08/20 06:48:58;;;;;;;;;;;17.60;99.90;;;;;;4976396;28;19922;-80
2023/08/20 06:51:25;;;;;;;;;;;17.70;99.90;;;;;;4974802;28;19929;-80
2023/08/20 06:53:50;;;;;;;;;;;17.80;99.90;;;;;;4974760;28;20343;-80
2023/08/20 06:56:16;;;;;;;;;;;17.80;99.90;;;;;;4974204;28;19922;-80
2023/08/20 06:58:42;;;;;;;;;;;17.80;99.90;;;;;;4975010;28;20283;-79
2023/08/20 07:01:08;;;;;;;;;;;17.90;99.90;;;;;;4958292;28;20387;-78
2023/08/20 07:03:34;;;;;;;;;;;17.90;99.90;;;;;;4975396;28;20016;-78
2023/08/20 07:06:00;;;;;;;;;;;18.00;99.90;;;;;;4974763;28;20367;-79
2023/08/20 07:08:25;;;;;;;;;;;18.10;99.90;;;;;;4974038;28;20064;-80
2023/08/20 07:10:51;;;;;;;;;;;18.10;99.90;;;;;;4974124;28;20272;-82
2023/08/20 07:13:16;;;;;;;;;;;18.20;99.90;;;;;;4975574;28;19948;-81
2023/08/20 07:15:42;;;;;;;;;;;18.20;99.90;;;;;;4979264;28;20009;-81
2023/08/20 07:18:07;;;;;;;;;;;18.30;99.90;;;;;;4993859;28;20370;-82
2023/08/20 07:20:33;;;;;;;;;;;18.30;99.90;;;;;;4993432;28;20367;-80
2023/08/20 07:22:59;;;;;;;;;;;18.40;99.90;;;;;;4995407;28;19921;-81
2023/08/20 07:25:24;;;;;;;;;;;18.40;99.90;;;;;;4985454;28;19933;-80
2023/08/20 07:27:50;;;;;;;;;;;18.50;99.90;;;;;;4963051;28;19927;-80
2023/08/20 07:30:16;;;;;;;;;;;18.50;99.90;;;;;;4968784;28;19926;-79
2023/08/20 07:32:42;;;;;;;;;;;18.60;99.90;;;;;;4964974;28;19922;-80
2023/08/20 07:35:08;;;;;;;;;;;18.60;99.90;;;;;;4952311;29;19926;-79
2023/08/20 07:37:33;;;;;;;;;;;18.70;99.90;;;;;;4954257;28;19922;-80
2023/08/20 07:39:59;;;;;;;;;;;18.70;99.90;;;;;;4937432;29;19949;-80
2023/08/20 07:42:24;;;;;;;;;;;18.80;99.90;;;;;;4954240;28;20307;-79
2023/08/20 07:44:50;;;;;;;;;;;18.80;99.90;;;;;;4953176;29;19947;-79
2023/08/20 07:47:15;;;;;;;;;;;18.90;99.90;;;;;;4957999;28;19926;-80
2023/08/20 07:49:41;;;;;;;;;;;19.00;99.90;;;;;;4973190;28;19929;-77
2023/08/20 07:52:06;;;;;;;;;;;19.10;99.90;;;;;;4972106;28;19930;-76
2023/08/20 07:54:32;;;;;;;;;;;19.10;99.90;;;;;;4971008;28;19922;-76
2023/08/20 07:56:58;;;;;;;;;;;19.20;99.90;;;;;;4971565;28;19933;-76
2023/08/20 07:59:23;;;;;;;;;;;19.30;99.90;;;;;;4975216;28;20291;-77
2023/08/20 08:01:49;;;;;;;;;;;19.30;99.90;;;;;;4974820;28;19926;-76
2023/08/20 08:04:14;;;;;;;;;;;19.40;99.90;;;;;;4971940;28;19930;-76
2023/08/20 08:06:40;;;;;;;;;;;19.40;99.90;;;;;;4963660;28;19990;-77
2023/08/20 08:09:19;;;;;;;;;;;19.50;99.90;;;;;;4960201;28;19926;-77
2023/08/20 08:11:45;;;;;;;;;;;19.60;99.90;;;;;;4956145;29;19953;-76
2023/08/20 08:14:11;;;;;;;;;;;19.60;99.90;;;;;;4939476;29;20368;-76
2023/08/20 08:16:37;;;;;;;;;;;19.70;99.90;;;;;;4956911;28;19926;-76
2023/08/20 08:19:02;;;;;;;;;;;19.70;99.90;;;;;;4955445;29;19930;-75
2023/08/20 08:21:28;;;;;;;;;;;19.80;99.90;;;;;;4939234;29;20079;-77
2023/08/20 08:23:53;;;;;;;;;;;19.90;99.90;;;;;;4955333;29;19926;-77
2023/08/20 08:26:19;;;;;;;;;;;20.00;99.90;;;;;;4955430;29;19926;-77
2023/08/20 08:28:44;;;;;;;;;;;20.00;99.90;;;;;;4955496;28;20504;-77
2023/08/20 08:31:10;;;;;;;;;;;20.10;99.90;;;;;;4955362;29;20288;-77
2023/08/20 08:33:35;;;;;;;;;;;20.10;99.90;;;;;;4955544;29;20404;-76
2023/08/20 08:36:01;;;;;;;;;;;20.20;99.90;;;;;;4955143;29;19923;-75
2023/08/20 08:38:27;;;;;;;;;;;20.30;99.90;;;;;;4973447;28;19958;-77
2023/08/20 08:40:52;;;;;;;;;;;20.30;99.90;;;;;;4975349;28;19922;-75
2023/08/20 08:43:18;;;;;;;;;;;20.50;99.90;;;;;;4974351;28;19922;-76
2023/08/20 08:45:46;;;;;;;;;;;20.50;99.90;;;;;;4975698;28;20288;-77
2023/08/20 08:48:12;;;;;;;;;;;20.60;99.90;;;;;;4974498;28;19926;-77
2023/08/20 08:50:38;;;;;;;;;;;20.80;99.90;;;;;;4974047;28;20310;-77
2023/08/20 08:53:04;;;;;;;;;;;20.80;99.90;;;;;;4974157;28;19929;-77
2023/08/20 08:55:30;;;;;;;;;;;20.90;99.90;;;;;;4969684;28;20015;-77
2023/08/20 08:57:56;;;;;;;;;;;21.00;99.90;;;;;;4964013;28;19965;-77
2023/08/20 09:00:21;;;;;;;;;;;21.10;99.90;;;;;;4957648;28;19965;-75
2023/08/20 09:02:47;;;;;;;;;;;21.10;99.90;;;;;;4974039;28;20348;-76
2023/08/20 09:05:15;;;;;;;;;;;21.10;99.90;;;;;;4974478;28;19922;-76
2023/08/20 09:07:47;;;;;;;;;;;21.20;99.90;;;;;;4973974;28;19933;-76
2023/08/20 09:10:16;;;;;;;;;;;21.20;99.90;;;;;;4972801;28;19922;-76
2023/08/20 09:12:42;;;;;;;;;;;21.20;99.90;;;;;;4974863;28;19968;-76
2023/08/20 09:15:11;;;;;;;;;;;21.30;99.90;;;;;;4975203;28;19931;-76
2023/08/20 09:17:37;;;;;;;;;;;21.30;99.90;;;;;;4975023;28;19926;-77
2023/08/20 09:20:02;;;;;;;;;;;21.30;99.90;;;;;;4974069;28;19930;-77
2023/08/20 09:22:28;;;;;;;;;;;21.40;99.90;;;;;;4957544;28;19964;-78
2023/08/20 09:24:55;;;;;;;;;;;21.50;99.90;;;;;;4975106;28;19926;-76
2023/08/20 09:27:21;;;;;;;;;;;21.60;99.90;;;;;;4973477;28;19937;-76
2023/08/20 09:29:48;;;;;;;;;;;21.70;99.90;;;;;;4973381;28;19926;-76
2023/08/20 09:32:18;;;;;;;;;;;21.80;99.90;;;;;;4964903;28;19922;-76
2023/08/20 09:34:43;;;;;;;;;;;21.80;99.90;;;;;;4958382;28;20292;-75
2023/08/20 09:37:10;;;;;;;;;;;21.90;99.90;;;;;;4954131;29;19926;-77
2023/08/20 09:39:35;;;;;;;;;;;21.90;99.90;;;;;;4938357;29;19930;-76
2023/08/20 09:42:01;;;;;;;;;;;22.00;99.90;;;;;;4953873;29;20005;-76
2023/08/20 09:44:29;;;;;;;;;;;22.10;99.90;;;;;;4953893;29;20016;-75
2023/08/20 09:46:55;;;;;;;;;;;22.10;99.90;;;;;;4938172;29;20014;-79
2023/08/20 09:49:21;;;;;;;;;;;22.20;99.90;;;;;;4954382;28;20017;-75
2023/08/20 09:51:48;;;;;;;;;;;22.20;99.90;;;;;;4953699;29;19927;-77
2023/08/20 09:54:21;;;;;;;;;;;22.30;99.90;;;;;;4954094;29;19987;-82
2023/08/20 09:56:51;;;;;;;;;;;22.40;99.90;;;;;;4957346;28;19934;-76
2023/08/20 09:59:17;;;;;;;;;;;22.50;99.90;;;;;;4969119;28;19930;-76
2023/08/20 10:01:42;;;;;;;;;;;22.60;99.90;;;;;;4972543;28;19969;-76
2023/08/20 10:04:09;;;;;;;;;;;22.60;99.90;;;;;;4957371;28;19925;-77
2023/08/20 10:06:35;;;;;;;;;;;22.60;99.90;;;;;;4973069;28;20430;-78
2023/08/20 10:09:02;;;;;;;;;;;22.70;99.90;;;;;;4973140;28;20017;-79
2023/08/20 10:11:27;;;;;;;;;;;22.80;99.90;;;;;;4956933;28;19977;-77
2023/08/20 10:13:53;;;;;;;;;;;22.70;99.90;;;;;;4972648;28;19926;-77
2023/08/20 10:16:23;;;;;;;;;;;22.70;99.90;;;;;;4972295;28;20319;-77
2023/08/20 10:18:49;;;;;;;;;;;22.80;99.90;;;;;;4973057;28;20358;-77
2023/08/20 10:21:15;;;;;;;;;;;22.80;99.90;;;;;;4972421;28;19926;-77
2023/08/20 10:23:42;;;;;;;;;;;22.90;99.90;;;;;;4972404;28;19980;-78
2023/08/20 10:26:10;;;;;;;;;;;22.90;99.90;;;;;;4972872;28;19926;-76
2023/08/20 10:28:36;;;;;;;;;;;22.90;99.90;;;;;;4972434;28;19934;-78
2023/08/20 10:31:08;;;;;;;;;;;22.90;99.90;;;;;;4973757;28;19973;-78
2023/08/20 10:33:38;;;;;;;;;;;22.90;99.90;;;;;;4956314;28;20032;-77
2023/08/20 10:36:08;;;;;;;;;;;23.00;99.90;;;;;;4972234;28;19929;-78
2023/08/20 10:38:37;;;;;;;;;;;23.20;99.90;;;;;;4972394;28;20009;-78
2023/08/20 10:41:06;;;;;;;;;;;23.20;99.90;;;;;;4973662;28;19922;-80
2023/08/20 10:43:31;;;;;;;;;;;23.20;99.90;;;;;;4956321;28;19930;-79
2023/08/20 10:46:20;;;;;;;;;;;23.20;99.90;;;;;;4972517;28;20020;-78
2023/08/20 10:48:50;;;;;;;;;;;23.20;99.90;;;;;;4972039;28;20296;-77
2023/08/20 10:51:17;;;;;;;;;;;23.20;99.90;;;;;;4971877;28;19926;-77
2023/08/20 10:53:47;;;;;;;;;;;23.30;99.90;;;;;;4966465;28;20396;-77
2023/08/20 10:56:15;;;;;;;;;;;23.30;99.90;;;;;;4953503;29;19969;-77
2023/08/20 10:58:41;;;;;;;;;;;23.40;99.90;;;;;;4953045;28;19922;-79
2023/08/20 11:01:17;;;;;;;;;;;23.50;99.90;;;;;;4953135;28;19926;-79
2023/08/20 11:03:44;;;;;;;;;;;23.60;99.90;;;;;;4953035;29;19994;-77
2023/08/20 11:06:11;;;;;;;;;;;23.70;99.90;;;;;;4953258;28;19926;-77
2023/08/20 11:08:37;;;;;;;;;;;23.80;99.90;;;;;;4971973;28;20013;-78
2023/08/20 11:11:03;;;;;;;;;;;23.80;99.90;;;;;;4973022;28;19922;-79
2023/08/20 11:13:29;;;;;;;;;;;23.90;99.90;;;;;;4973372;28;19933;-77
2023/08/20 11:15:55;;;;;;;;;;;23.80;99.90;;;;;;4971944;28;19930;-78
2023/08/20 11:18:21;;;;;;;;;;;23.90;99.90;;;;;;4955431;28;19977;-76
2023/08/20 11:20:47;;;;;;;;;;;23.90;99.90;;;;;;4973061;28;20281;-76
2023/08/20 11:23:13;;;;;;;;;;;23.80;99.90;;;;;;4971598;28;20269;-78
2023/08/20 11:25:42;;;;;;;;;;;23.80;99.90;;;;;;4971959;28;19933;-77
2023/08/20 11:28:07;;;;;;;;;;;23.80;99.90;;;;;;4955612;28;20346;-77
2023/08/20 11:30:33;;;;;;;;;;;23.70;99.90;;;;;;4971536;28;19926;-76
2023/08/20 11:32:59;;;;;;;;;;;23.70;99.90;;;;;;4972172;28;19934;-77
2023/08/20 11:35:25;;;;;;;;;;;23.80;99.90;;;;;;4960108;28;20012;-76
2023/08/20 11:37:51;;;;;;;;;;;24.00;99.90;;;;;;4977065;28;19933;-76
2023/08/20 11:40:17;;;;;;;;;;;24.10;99.90;;;;;;4975592;28;19932;-76
2023/08/20 11:42:42;;;;;;;;;;;24.10;99.90;;;;;;4975570;28;19922;-77
2023/08/20 11:45:09;;;;;;;;;;;24.20;99.90;;;;;;4975417;28;20005;-77
2023/08/20 11:47:39;;;;;;;;;;;24.10;99.90;;;;;;4975977;28;19945;-76
2023/08/20 11:50:05;;;;;;;;;;;23.80;99.90;;;;;;4976629;28;19922;-76
2023/08/20 11:52:33;;;;;;;;;;;23.70;99.90;;;;;;4975673;28;19933;-77
2023/08/20 11:55:03;;;;;;;;;;;23.70;99.90;;;;;;4975188;28;20347;-77
2023/08/20 11:57:29;;;;;;;;;;;23.60;99.90;;;;;;4975452;28;19973;-77
2023/08/20 11:59:54;;;;;;;;;;;23.60;99.90;;;;;;4975163;28;19929;-77
2023/08/20 12:02:29;;;;;;;;;;;23.70;99.90;;;;;;4976114;28;19926;-77
2023/08/20 12:04:58;;;;;;;;;;;23.70;99.90;;;;;;4975309;28;19922;-78
2023/08/20 12:07:27;;;;;;;;;;;23.90;99.90;;;;;;4975104;28;19982;-78
2023/08/20 12:09:53;;;;;;;;;;;24.10;99.90;;;;;;4976545;28;19973;-77
2023/08/20 12:12:20;;;;;;;;;;;24.20;99.90;;;;;;4976323;28;20306;-77
2023/08/20 12:14:46;;;;;;;;;;;24.30;99.90;;;;;;4975418;28;20327;-76
2023/08/20 12:17:11;;;;;;;;;;;24.50;99.90;;;;;;4977009;28;19929;-77
2023/08/20 12:19:37;;;;;;;;;;;24.50;99.90;;;;;;4976993;28;19969;-78
2023/08/20 12:22:03;;;;;;;;;;;24.40;99.90;;;;;;4975251;28;19922;-77
2023/08/20 12:24:29;;;;;;;;;;;24.30;99.90;;;;;;4975202;28;19926;-77
2023/08/20 12:26:54;;;;;;;;;;;24.30;99.90;;;;;;4974826;28;19926;-77
2023/08/20 12:29:20;;;;;;;;;;;24.20;99.90;;;;;;4976337;28;19926;-77
2023/08/20 12:31:45;;;;;;;;;;;24.30;99.90;;;;;;4974835;28;19922;-76
2023/08/20 12:34:11;;;;;;;;;;;24.20;99.90;;;;;;4976034;28;20465;-76
2023/08/20 12:36:37;;;;;;;;;;;24.20;99.90;;;;;;4974591;28;19926;-77
2023/08/20 12:39:04;;;;;;;;;;;24.30;99.90;;;;;;4974701;28;19973;-75
2023/08/20 12:41:29;;;;;;;;;;;24.20;99.90;;;;;;4973807;28;19930;-76
2023/08/20 12:43:55;;;;;;;;;;;24.30;99.90;;;;;;4956483;28;19926;-77
2023/08/20 12:46:20;;;;;;;;;;;24.30;99.90;;;;;;4954944;29;19973;-76
2023/08/20 12:48:46;;;;;;;;;;;24.50;99.90;;;;;;4955006;29;19977;-76
2023/08/20 12:51:13;;;;;;;;;;;24.50;99.90;;;;;;4954848;29;20017;-75
2023/08/20 12:53:39;;;;;;;;;;;24.50;99.90;;;;;;4954837;29;19926;-76
2023/08/20 12:56:05;;;;;;;;;;;24.20;99.90;;;;;;4956046;28;19926;-76
2023/08/20 12:58:30;;;;;;;;;;;24.10;99.90;;;;;;4954649;29;20407;-76
2023/08/20 13:00:56;;;;;;;;;;;24.00;99.90;;;;;;4955740;28;19929;-76
2023/08/20 13:03:21;;;;;;;;;;;23.90;99.90;;;;;;4954960;29;19927;-77
2023/08/20 13:05:47;;;;;;;;;;;24.00;99.90;;;;;;4955020;29;19929;-75
2023/08/20 13:08:13;;;;;;;;;;;24.10;99.90;;;;;;4954819;29;19927;-76
2023/08/20 13:10:40;;;;;;;;;;;24.30;99.90;;;;;;4957186;28;19926;-75
2023/08/20 13:13:09;;;;;;;;;;;24.30;99.90;;;;;;4973712;28;19926;-76
2023/08/20 13:15:34;;;;;;;;;;;24.20;99.90;;;;;;4974911;28;19926;-77
2023/08/20 13:18:00;;;;;;;;;;;24.00;99.90;;;;;;4973646;28;19926;-75
2023/08/20 13:20:27;;;;;;;;;;;23.90;99.90;;;;;;4974896;28;19923;-75
2023/08/20 13:22:52;;;;;;;;;;;23.70;99.90;;;;;;4973501;28;19930;-75
2023/08/20 13:25:21;;;;;;;;;;;23.80;99.90;;;;;;4973591;28;19933;-76
2023/08/20 13:27:46;;;;;;;;;;;23.70;99.90;;;;;;4973562;28;19926;-77
2023/08/20 13:30:13;;;;;;;;;;;23.80;99.90;;;;;;4974902;28;19926;-75
2023/08/20 13:32:38;;;;;;;;;;;23.90;99.90;;;;;;4973463;28;19981;-75
2023/08/20 13:35:04;;;;;;;;;;;24.10;99.90;;;;;;4957353;28;20272;-76
2023/08/20 13:37:33;;;;;;;;;;;24.30;99.90;;;;;;4974737;28;19948;-75
2023/08/20 13:39:59;;;;;;;;;;;24.40;99.90;;;;;;4973315;28;19930;-76
2023/08/20 13:42:25;;;;;;;;;;;24.40;99.90;;;;;;4973497;28;20008;-76
2023/08/20 13:44:50;;;;;;;;;;;24.60;99.90;;;;;;4973095;28;19930;-76
2023/08/20 13:47:16;;;;;;;;;;;24.70;99.90;;;;;;4974356;28;20292;-75
2023/08/20 13:49:42;;;;;;;;;;;24.60;99.90;;;;;;4974296;28;20395;-75
2023/08/20 13:52:09;;;;;;;;;;;24.70;99.90;;;;;;4972904;28;19929;-75
2023/08/20 13:54:35;;;;;;;;;;;24.80;99.90;;;;;;5005466;28;19921;-75
2023/08/20 13:57:00;;;;;;;;;;;24.80;99.90;;;;;;4973823;28;19926;-76
2023/08/20 13:59:26;;;;;;;;;;;24.70;99.90;;;;;;4974323;28;19972;-77
2023/08/20 14:01:51;;;;;;;;;;;24.80;99.90;;;;;;4973959;28;19980;-77
2023/08/20 14:04:17;;;;;;;;;;;24.80;99.90;;;;;;4974111;28;19922;-76
2023/08/20 14:06:42;;;;;;;;;;;24.90;99.90;;;;;;4972960;28;20388;-76
2023/08/20 14:09:08;;;;;;;;;;;24.90;99.90;;;;;;4974315;28;19926;-76
2023/08/20 14:11:33;;;;;;;;;;;24.90;99.90;;;;;;4973781;28;19968;-76
2023/08/20 14:13:59;;;;;;;;;;;25.00;99.90;;;;;;4972962;28;20387;-78
2023/08/20 14:16:25;;;;;;;;;;;25.00;99.90;;;;;;4973810;28;19926;-77
2023/08/20 14:18:50;;;;;;;;;;;25.00;99.90;;;;;;4972532;28;19933;-75
2023/08/20 14:21:16;;;;;;;;;;;25.00;99.90;;;;;;4972491;28;20314;-76
2023/08/20 14:23:42;;;;;;;;;;;25.00;99.90;;;;;;4972438;28;19926;-76
2023/08/20 14:26:07;;;;;;;;;;;25.00;99.90;;;;;;4972346;28;19922;-76
2023/08/20 14:28:33;;;;;;;;;;;25.00;99.90;;;;;;4973673;28;19985;-76
2023/08/20 14:31:03;;;;;;;;;;;24.90;99.90;;;;;;4972305;28;19930;-76
2023/08/20 14:33:29;;;;;;;;;;;24.90;99.90;;;;;;4973559;28;19930;-76
2023/08/20 14:35:54;;;;;;;;;;;25.00;99.90;;;;;;4970917;28;19922;-76
2023/08/20 14:38:20;;;;;;;;;;;25.00;99.90;;;;;;4972302;28;19926;-76
2023/08/20 14:40:49;;;;;;;;;;;25.00;99.90;;;;;;4971871;28;19922;-76
2023/08/20 14:43:14;;;;;;;;;;;24.90;99.90;;;;;;4972793;28;20340;-78
2023/08/20 14:45:40;;;;;;;;;;;24.90;99.90;;;;;;4972013;28;19926;-79
2023/08/20 14:48:05;;;;;;;;;;;24.90;99.90;;;;;;4972250;28;19936;-77
2023/08/20 14:50:31;;;;;;;;;;;24.80;99.90;;;;;;4972518;28;19973;-79
2023/08/20 14:52:57;;;;;;;;;;;24.80;99.90;;;;;;4972563;28;19929;-77
2023/08/20 14:55:22;;;;;;;;;;;24.80;99.90;;;;;;4973320;28;19976;-79
2023/08/20 14:57:48;;;;;;;;;;;24.70;99.90;;;;;;4971939;28;20388;-78
2023/08/20 15:00:14;;;;;;;;;;;24.70;99.90;;;;;;4969822;28;19973;-77
2023/08/20 15:02:40;;;;;;;;;;;24.70;99.90;;;;;;4961240;28;19926;-78
2023/08/20 15:05:06;;;;;;;;;;;24.80;99.90;;;;;;4961634;28;19926;-78
2023/08/20 15:07:31;;;;;;;;;;;24.70;99.90;;;;;;4962277;28;20022;-77
2023/08/20 15:09:57;;;;;;;;;;;24.70;99.90;;;;;;4965939;28;20360;-79
2023/08/20 15:12:22;;;;;;;;;;;24.70;99.90;;;;;;4961509;28;20403;-76
2023/08/20 15:14:48;;;;;;;;;;;24.80;99.90;;;;;;4961086;28;19930;-76
2023/08/20 15:17:13;;;;;;;;;;;24.80;99.90;;;;;;4960468;28;19926;-76
2023/08/20 15:19:39;;;;;;;;;;;24.90;99.90;;;;;;4952596;29;19926;-77
2023/08/20 15:22:04;;;;;;;;;;;24.90;99.90;;;;;;4952487;29;19926;-79
2023/08/20 15:24:30;;;;;;;;;;;24.90;99.90;;;;;;4956323;28;20062;-78
2023/08/20 15:26:56;;;;;;;;;;;24.90;99.90;;;;;;4970989;28;19930;-77
2023/08/20 15:29:21;;;;;;;;;;;24.60;99.90;;;;;;4971613;28;19974;-76
2023/08/20 15:31:48;;;;;;;;;;;24.60;99.90;;;;;;4971827;28;19922;-77
2023/08/20 15:34:14;;;;;;;;;;;24.60;99.90;;;;;;4955490;28;19926;-78
2023/08/20 15:36:39;;;;;;;;;;;24.50;99.90;;;;;;4971761;28;19926;-78
2023/08/20 15:39:06;;;;;;;;;;;24.40;99.90;;;;;;4971739;28;20292;-77
2023/08/20 15:41:31;;;;;;;;;;;24.20;99.90;;;;;;4971423;28;19933;-77
2023/08/20 15:43:57;;;;;;;;;;;24.20;99.90;;;;;;4971410;28;19922;-76
2023/08/20 15:46:23;;;;;;;;;;;24.20;99.90;;;;;;4971582;28;19934;-77
2023/08/20 15:48:49;;;;;;;;;;;24.30;99.90;;;;;;4971857;28;19930;-78
2023/08/20 15:51:14;;;;;;;;;;;24.50;99.90;;;;;;4971447;28;19922;-77
2023/08/20 15:53:40;;;;;;;;;;;24.50;99.90;;;;;;4971449;28;19976;-78
2023/08/20 15:56:05;;;;;;;;;;;24.50;99.90;;;;;;4971361;28;19934;-77
2023/08/20 15:58:31;;;;;;;;;;;24.50;99.90;;;;;;4971400;28;20021;-79
2023/08/20 16:00:57;;;;;;;;;;;24.60;99.90;;;;;;4972335;28;19922;-77
2023/08/20 16:03:22;;;;;;;;;;;24.60;99.90;;;;;;4972546;28;19926;-78
2023/08/20 16:05:48;;;;;;;;;;;24.50;99.90;;;;;;4971494;28;20415;-76
2023/08/20 16:08:14;;;;;;;;;;;24.50;99.90;;;;;;4971172;28;19930;-75
2023/08/20 16:10:40;;;;;;;;;;;24.50;99.90;;;;;;4968616;28;20017;-77
2023/08/20 16:13:05;;;;;;;;;;;24.50;99.90;;;;;;4971086;28;20013;-78
2023/08/20 16:15:31;;;;;;;;;;;24.50;99.90;;;;;;4970983;28;19930;-77
2023/08/20 16:17:56;;;;;;;;;;;24.40;99.90;;;;;;4954737;28;19953;-76
2023/08/20 16:20:23;;;;;;;;;;;24.50;99.90;;;;;;4973624;28;19925;-78
2023/08/20 16:22:48;;;;;;;;;;;24.50;99.90;;;;;;4974651;28;19926;-77
2023/08/20 16:25:14;;;;;;;;;;;24.50;99.90;;;;;;4959732;28;19997;-78
2023/08/20 16:27:39;;;;;;;;;;;24.50;99.90;;;;;;4955456;29;19931;-76
2023/08/20 16:30:06;;;;;;;;;;;24.40;99.90;;;;;;4955282;29;19960;-78
2023/08/20 16:32:32;;;;;;;;;;;24.30;99.90;;;;;;4956466;28;19985;-76
2023/08/20 16:34:57;;;;;;;;;;;24.20;99.90;;;;;;4955557;29;19969;-78
2023/08/20 16:37:23;;;;;;;;;;;24.20;99.90;;;;;;4955331;29;20288;-77
2023/08/20 16:39:48;;;;;;;;;;;24.10;99.90;;;;;;4955123;29;20372;-76
2023/08/20 16:42:14;;;;;;;;;;;24.00;99.90;;;;;;4954832;29;19926;-76
2023/08/20 16:44:39;;;;;;;;;;;24.00;99.90;;;;;;4955062;29;19927;-76
2023/08/20 16:47:05;;;;;;;;;;;23.90;99.90;;;;;;4955118;29;19937;-78
2023/08/20 16:49:30;;;;;;;;;;;23.90;99.90;;;;;;4955027;29;19927;-76
2023/08/20 16:51:56;;;;;;;;;;;23.80;99.90;;;;;;4956029;28;19922;-76
2023/08/20 16:54:22;;;;;;;;;;;23.70;99.90;;;;;;4954883;29;19927;-75
2023/08/20 16:56:47;;;;;;;;;;;23.70;99.90;;;;;;4954827;29;19922;-76
2023/08/20 16:59:13;;;;;;;;;;;23.70;99.90;;;;;;4954978;29;19933;-76
2023/08/20 17:01:38;;;;;;;;;;;23.70;99.90;;;;;;4954893;29;20325;-76
2023/08/20 17:04:04;;;;;;;;;;;23.60;99.90;;;;;;4954886;29;20427;-76
2023/08/20 17:06:29;;;;;;;;;;;23.60;99.90;;;;;;4955879;28;20376;-76
2023/08/20 17:08:55;;;;;;;;;;;23.50;99.90;;;;;;4954472;29;19927;-75
2023/08/20 17:11:20;;;;;;;;;;;23.50;99.90;;;;;;4954787;29;20280;-77
2023/08/20 17:13:46;;;;;;;;;;;23.40;99.90;;;;;;4960055;28;20371;-78
2023/08/20 17:16:11;;;;;;;;;;;23.40;99.90;;;;;;4957032;28;19933;-77
2023/08/20 17:18:37;;;;;;;;;;;23.40;99.90;;;;;;4954317;29;19923;-76
2023/08/20 17:21:03;;;;;;;;;;;23.40;99.90;;;;;;4955719;28;19977;-76
2023/08/20 17:23:28;;;;;;;;;;;23.50;99.90;;;;;;4955561;28;20009;-77
2023/08/20 17:25:54;;;;;;;;;;;23.50;99.90;;;;;;4954223;29;19926;-77
2023/08/20 17:28:20;;;;;;;;;;;23.50;99.90;;;;;;4938223;29;19926;-77
2023/08/20 17:30:45;;;;;;;;;;;23.40;99.90;;;;;;4967490;28;19977;-77
2023/08/20 17:33:15;;;;;;;;;;;23.40;99.90;;;;;;4973802;28;19926;-77
2023/08/20 17:35:44;;;;;;;;;;;23.30;99.90;;;;;;4973723;28;19926;-76
2023/08/20 17:38:10;;;;;;;;;;;23.20;99.90;;;;;;4973431;28;20005;-76
2023/08/20 17:40:36;;;;;;;;;;;23.30;99.90;;;;;;4973110;28;19925;-76
2023/08/20 17:43:02;;;;;;;;;;;23.40;99.90;;;;;;4973477;28;19933;-76
2023/08/20 17:45:27;;;;;;;;;;;23.60;99.90;;;;;;4973202;28;19926;-76
2023/08/20 17:47:53;;;;;;;;;;;23.70;99.90;;;;;;4974321;28;20296;-77
2023/08/20 17:50:20;;;;;;;;;;;23.80;99.90;;;;;;4974323;28;20371;-76
2023/08/20 17:52:46;;;;;;;;;;;23.60;99.90;;;;;;4973326;28;20336;-77
2023/08/20 17:55:11;;;;;;;;;;;23.50;99.90;;;;;;4973059;28;19933;-77
2023/08/20 17:57:37;;;;;;;;;;;23.30;99.90;;;;;;4972959;28;20315;-77
2023/08/20 18:00:04;;;;;;;;;;;23.10;99.90;;;;;;4972941;28;19985;-77
2023/08/20 18:02:30;;;;;;;;;;;23.10;99.90;;;;;;4974030;28;19928;-77
2023/08/20 18:04:55;;;;;;;;;;;22.90;99.90;;;;;;4972706;28;19930;-75
2023/08/20 18:07:34;;;;;;;;;;;22.90;99.90;;;;;;4972750;28;19977;-77
2023/08/20 18:10:01;;;;;;;;;;;22.80;99.90;;;;;;4972574;28;19922;-77